world map with NNT marked

NNT - Airport

This information may not be accurate or current and is not valid for navigation or flight planning. No warranty of fitness for any purpose is made or implied.

flag of Thailand

Donate via PayPal

Additional information is available on the NEW Great Circle Mapper

Location
City:  Nan, Nan, Thailand
ICAO / IATA:VTCN / NNT

Details
Type:Airport (Aerodrome, Airfield)
Latitude:18°48'28"N (18.807914)
Longitude:100°47'00"E (100.783419)
Datum:WGS 1984
Elevation:685 ft (209 m)
Runways:1
Longest:6562 × 148 ft (2000 × 45 m)

Time
Timezone:UTC+7 (DST+9)
Local Time:

Weather
METAR:VTCN  220300Z VRB01KT 9999 FEW040 24/17 Q1018 NOSIG
TAF:VTCN  212300Z 2200/2224 18005KT 9999 FEW025

Related Locations
Nearby:
Farthest:APE: 12082 mi / 19444 km
San Juan Aposento, ICA, PE

Find:

   beyond  
but within

Other Information
Maps:
Sources:

  


 


Great Circle Mapper   Great Circle Mapper
Great Circle Mapper FAQ   Great Circle Mapper FAQ
  Karl's Home Page
KLSē   KLSē Home
   GC on Facebook
Airlines of the World   Airlines of the World
Donate via PayPal


Copyright © 2004-2019, Karl L. Swartz. All rights reserved.
All trademarks mentioned herein belong to their respective owners.

Please see credits for attribution and copyright information.

Karl Swartz <karl@kls2.com>
  Powered by FreeBSD
Valid HTML 4.01!
Labeled with ICRA
hCard Microformat
Geo Microformat